sensor_id;sensor_type;location;lat;lon;timestamp;pressure;altitude;pressure_sealevel;temperature;humidity
14689;BME280;7432;48.728;9.154;2022-11-06T00:00:33;96967.72;;;4.18;100.00
14689;BME280;7432;48.728;9.154;2022-11-06T00:03:01;96966.09;;;4.17;100.00
14689;BME280;7432;48.728;9.154;2022-11-06T00:05:28;96947.31;;;4.07;100.00
14689;BME280;7432;48.728;9.154;2022-11-06T00:08:12;96956.34;;;4.11;100.00
14689;BME280;7432;48.728;9.154;2022-11-06T00:10:39;96959.94;;;4.08;100.00
14689;BME280;7432;48.728;9.154;2022-11-06T00:13:05;96959.03;;;4.09;100.00
14689;BME280;7432;48.728;9.154;2022-11-06T00:15:32;96952.28;;;4.08;100.00
14689;BME280;7432;48.728;9.154;2022-11-06T00:18:00;96955.91;;;4.17;100.00
14689;BME280;7432;48.728;9.154;2022-11-06T00:20:27;96948.59;;;4.12;100.00
14689;BME280;7432;48.728;9.154;2022-11-06T00:22:53;96944.78;;;4.18;100.00
14689;BME280;7432;48.728;9.154;2022-11-06T00:25:19;96940.41;;;4.20;100.00
14689;BME280;7432;48.728;9.154;2022-11-06T00:27:46;96940.66;;;4.28;100.00
14689;BME280;7432;48.728;9.154;2022-11-06T00:30:12;96934.09;;;4.37;100.00
14689;BME280;7432;48.728;9.154;2022-11-06T00:32:39;96926.75;;;4.32;100.00
14689;BME280;7432;48.728;9.154;2022-11-06T00:35:07;96951.25;;;4.46;100.00
14689;BME280;7432;48.728;9.154;2022-11-06T00:37:33;96957.19;;;4.46;100.00
14689;BME280;7432;48.728;9.154;2022-11-06T00:40:00;96959.63;;;4.48;100.00
14689;BME280;7432;48.728;9.154;2022-11-06T00:42:26;96964.13;;;4.44;100.00
14689;BME280;7432;48.728;9.154;2022-11-06T00:44:53;96961.81;;;4.41;100.00
14689;BME280;7432;48.728;9.154;2022-11-06T00:47:19;96963.19;;;4.34;100.00
14689;BME280;7432;48.728;9.154;2022-11-06T00:49:45;96958.59;;;4.27;100.00
14689;BME280;7432;48.728;9.154;2022-11-06T00:52:13;96964.16;;;4.21;100.00
14689;BME280;7432;48.728;9.154;2022-11-06T00:54:40;96965.50;;;4.13;100.00
14689;BME280;7432;48.728;9.154;2022-11-06T00:57:06;96972.88;;;4.05;100.00
14689;BME280;7432;48.728;9.154;2022-11-06T00:59:33;96972.88;;;4.05;100.00
14689;BME280;7432;48.728;9.154;2022-11-06T01:02:00;96963.94;;;4.00;100.00
14689;BME280;7432;48.728;9.154;2022-11-06T01:04:26;96959.19;;;3.95;100.00
14689;BME280;7432;48.728;9.154;2022-11-06T01:06:54;96955.19;;;3.91;100.00
14689;BME280;7432;48.728;9.154;2022-11-06T01:09:24;96958.22;;;3.96;100.00
14689;BME280;7432;48.728;9.154;2022-11-06T01:11:52;96953.97;;;3.97;100.00
14689;BME280;7432;48.728;9.154;2022-11-06T01:14:20;96945.50;;;3.96;100.00
14689;BME280;7432;48.728;9.154;2022-11-06T01:16:47;96958.56;;;3.92;100.00
14689;BME280;7432;48.728;9.154;2022-11-06T01:19:15;96944.53;;;3.86;100.00
14689;BME280;7432;48.728;9.154;2022-11-06T01:21:44;96953.91;;;3.86;100.00
14689;BME280;7432;48.728;9.154;2022-11-06T01:24:13;96958.00;;;3.76;100.00
14689;BME280;7432;48.728;9.154;2022-11-06T01:26:42;96953.84;;;3.75;100.00
14689;BME280;7432;48.728;9.154;2022-11-06T01:29:17;96952.53;;;3.69;100.00
14689;BME280;7432;48.728;9.154;2022-11-06T01:31:45;96955.88;;;3.70;100.00
14689;BME280;7432;48.728;9.154;2022-11-06T01:34:14;96953.53;;;3.79;100.00
14689;BME280;7432;48.728;9.154;2022-11-06T01:36:40;96955.25;;;3.79;100.00
14689;BME280;7432;48.728;9.154;2022-11-06T01:39:09;96950.03;;;3.80;100.00
14689;BME280;7432;48.728;9.154;2022-11-06T01:41:38;96938.13;;;3.57;100.00
14689;BME280;7432;48.728;9.154;2022-11-06T01:47:19;96947.88;;;3.63;100.00
14689;BME280;7432;48.728;9.154;2022-11-06T01:49:47;96951.13;;;3.65;100.00
14689;BME280;7432;48.728;9.154;2022-11-06T01:52:15;96944.59;;;3.61;100.00
14689;BME280;7432;48.728;9.154;2022-11-06T01:54:42;96940.53;;;3.58;100.00
14689;BME280;7432;48.728;9.154;2022-11-06T01:57:10;96941.56;;;3.56;100.00
14689;BME280;7432;48.728;9.154;2022-11-06T01:59:41;96952.16;;;3.50;100.00
14689;BME280;7432;48.728;9.154;2022-11-06T02:02:10;96948.53;;;3.41;100.00
14689;BME280;7432;48.728;9.154;2022-11-06T02:04:42;96946.38;;;3.48;100.00
14689;BME280;7432;48.728;9.154;2022-11-06T02:07:09;96941.00;;;3.40;100.00
14689;BME280;7432;48.728;9.154;2022-11-06T02:09:36;96942.94;;;3.36;100.00
14689;BME280;7432;48.728;9.154;2022-11-06T02:12:11;96941.41;;;3.34;100.00
14689;BME280;7432;48.728;9.154;2022-11-06T02:14:43;96941.41;;;3.34;100.00
14689;BME280;7432;48.728;9.154;2022-11-06T02:17:16;96935.94;;;3.27;100.00
14689;BME280;7432;48.728;9.154;2022-11-06T02:19:55;96935.81;;;3.29;100.00
14689;BME280;7432;48.728;9.154;2022-11-06T02:22:46;96940.53;;;3.22;100.00
14689;BME280;7432;48.728;9.154;2022-11-06T02:25:25;96935.66;;;3.19;100.00
14689;BME280;7432;48.728;9.154;2022-11-06T02:27:59;96929.00;;;3.29;100.00
14689;BME280;7432;48.728;9.154;2022-11-06T02:30:28;96927.38;;;3.28;100.00
14689;BME280;7432;48.728;9.154;2022-11-06T02:32:59;96925.56;;;3.30;100.00
14689;BME280;7432;48.728;9.154;2022-11-06T02:35:31;96916.78;;;3.34;100.00
14689;BME280;7432;48.728;9.154;2022-11-06T02:38:00;96911.59;;;3.36;100.00
14689;BME280;7432;48.728;9.154;2022-11-06T02:40:31;96887.09;;;3.22;100.00
14689;BME280;7432;48.728;9.154;2022-11-06T02:43:03;96904.06;;;3.34;100.00
14689;BME280;7432;48.728;9.154;2022-11-06T02:45:33;96897.03;;;3.38;100.00
14689;BME280;7432;48.728;9.154;2022-11-06T02:48:02;96899.56;;;3.38;100.00
14689;BME280;7432;48.728;9.154;2022-11-06T02:50:33;96890.22;;;3.38;100.00
14689;BME280;7432;48.728;9.154;2022-11-06T02:53:03;96884.78;;;3.43;100.00
14689;BME280;7432;48.728;9.154;2022-11-06T02:55:33;96879.00;;;3.41;100.00
14689;BME280;7432;48.728;9.154;2022-11-06T02:58:06;96874.13;;;3.38;100.00
14689;BME280;7432;48.728;9.154;2022-11-06T03:00:34;96865.06;;;3.34;100.00
14689;BME280;7432;48.728;9.154;2022-11-06T03:03:06;96861.22;;;3.28;100.00
14689;BME280;7432;48.728;9.154;2022-11-06T03:05:39;96853.91;;;3.24;100.00
14689;BME280;7432;48.728;9.154;2022-11-06T03:08:10;96855.03;;;3.20;100.00
14689;BME280;7432;48.728;9.154;2022-11-06T03:10:43;96861.13;;;3.17;100.00
14689;BME280;7432;48.728;9.154;2022-11-06T03:13:16;96852.31;;;3.10;100.00
14689;BME280;7432;48.728;9.154;2022-11-06T03:15:51;96860.06;;;3.09;100.00
14689;BME280;7432;48.728;9.154;2022-11-06T03:18:25;96847.97;;;2.99;100.00
14689;BME280;7432;48.728;9.154;2022-11-06T03:20:57;96857.72;;;3.06;100.00
14689;BME280;7432;48.728;9.154;2022-11-06T03:23:27;96853.44;;;3.06;100.00
14689;BME280;7432;48.728;9.154;2022-11-06T03:26:02;96850.72;;;2.96;100.00
14689;BME280;7432;48.728;9.154;2022-11-06T03:28:36;96856.81;;;2.94;100.00
14689;BME280;7432;48.728;9.154;2022-11-06T03:31:07;96856.41;;;2.87;100.00
14689;BME280;7432;48.728;9.154;2022-11-06T03:33:39;96853.59;;;2.79;100.00
14689;BME280;7432;48.728;9.154;2022-11-06T03:36:11;96856.75;;;2.83;100.00
14689;BME280;7432;48.728;9.154;2022-11-06T03:38:40;96849.84;;;2.72;100.00
14689;BME280;7432;48.728;9.154;2022-11-06T03:41:13;96851.06;;;2.67;100.00
14689;BME280;7432;48.728;9.154;2022-11-06T03:43:44;96843.31;;;2.68;100.00
14689;BME280;7432;48.728;9.154;2022-11-06T03:46:16;96843.44;;;2.67;100.00
14689;BME280;7432;48.728;9.154;2022-11-06T03:48:46;96844.13;;;2.69;100.00
14689;BME280;7432;48.728;9.154;2022-11-06T03:51:16;96838.25;;;2.68;100.00
14689;BME280;7432;48.728;9.154;2022-11-06T03:53:46;96839.97;;;2.68;100.00
14689;BME280;7432;48.728;9.154;2022-11-06T03:56:16;96839.19;;;2.67;100.00
14689;BME280;7432;48.728;9.154;2022-11-06T03:58:46;96837.84;;;2.62;100.00
14689;BME280;7432;48.728;9.154;2022-11-06T04:01:16;96835.00;;;2.54;100.00
14689;BME280;7432;48.728;9.154;2022-11-06T04:03:47;96827.69;;;2.49;99.62
14689;BME280;7432;48.728;9.154;2022-11-06T04:06:17;96831.06;;;2.37;100.00
14689;BME280;7432;48.728;9.154;2022-11-06T04:08:47;96813.97;;;2.39;99.72
14689;BME280;7432;48.728;9.154;2022-11-06T04:11:34;96817.63;;;2.35;100.00
14689;BME280;7432;48.728;9.154;2022-11-06T04:14:23;96800.03;;;2.19;99.86
14689;BME280;7432;48.728;9.154;2022-11-06T04:16:53;96811.44;;;2.26;100.00
14689;BME280;7432;48.728;9.154;2022-11-06T04:19:21;96807.84;;;2.16;99.27
14689;BME280;7432;48.728;9.154;2022-11-06T04:21:59;96800.56;;;2.12;99.72
14689;BME280;7432;48.728;9.154;2022-11-06T04:24:33;96801.78;;;2.06;99.67
14689;BME280;7432;48.728;9.154;2022-11-06T04:27:37;96802.66;;;2.05;98.38
14689;BME280;7432;48.728;9.154;2022-11-06T04:30:09;96800.56;;;1.99;98.35
14689;BME280;7432;48.728;9.154;2022-11-06T04:32:53;96800.25;;;2.04;99.12
14689;BME280;7432;48.728;9.154;2022-11-06T04:35:34;96788.75;;;1.98;97.53
14689;BME280;7432;48.728;9.154;2022-11-06T04:38:07;96794.34;;;1.91;97.82
14689;BME280;7432;48.728;9.154;2022-11-06T04:40:42;96779.81;;;1.93;97.27
14689;BME280;7432;48.728;9.154;2022-11-06T04:43:14;96780.84;;;1.90;97.26
14689;BME280;7432;48.728;9.154;2022-11-06T04:45:48;96775.13;;;1.74;97.19
14689;BME280;7432;48.728;9.154;2022-11-06T04:48:17;96781.50;;;1.67;97.15
14689;BME280;7432;48.728;9.154;2022-11-06T04:50:47;96773.81;;;1.68;96.99
14689;BME280;7432;48.728;9.154;2022-11-06T04:53:16;96779.75;;;1.55;97.40
14689;BME280;7432;48.728;9.154;2022-11-06T04:55:45;96769.88;;;1.38;99.07
14689;BME280;7432;48.728;9.154;2022-11-06T04:58:12;96754.25;;;1.31;98.29
14689;BME280;7432;48.728;9.154;2022-11-06T05:00:44;96763.38;;;1.34;98.76
14689;BME280;7432;48.728;9.154;2022-11-06T05:03:13;96760.22;;;1.30;98.52
14689;BME280;7432;48.728;9.154;2022-11-06T05:05:39;96761.63;;;1.34;100.00
14689;BME280;7432;48.728;9.154;2022-11-06T05:08:11;96777.16;;;1.30;99.30
14689;BME280;7432;48.728;9.154;2022-11-06T05:10:38;96782.84;;;1.33;99.43
14689;BME280;7432;48.728;9.154;2022-11-06T05:13:05;96795.22;;;1.38;99.04
14689;BME280;7432;48.728;9.154;2022-11-06T05:15:31;96800.31;;;1.38;98.84
14689;BME280;7432;48.728;9.154;2022-11-06T05:17:58;96798.91;;;1.46;99.04
14689;BME280;7432;48.728;9.154;2022-11-06T05:20:25;96788.75;;;1.46;100.00
14689;BME280;7432;48.728;9.154;2022-11-06T05:22:52;96785.09;;;1.50;99.88
14689;BME280;7432;48.728;9.154;2022-11-06T05:25:25;96795.25;;;1.50;99.92
14689;BME280;7432;48.728;9.154;2022-11-06T05:27:52;96794.28;;;1.53;99.33
14689;BME280;7432;48.728;9.154;2022-11-06T05:30:18;96791.75;;;1.53;99.73
14689;BME280;7432;48.728;9.154;2022-11-06T05:32:45;96793.78;;;1.60;99.04
14689;BME280;7432;48.728;9.154;2022-11-06T05:35:11;96799.88;;;1.58;98.63
14689;BME280;7432;48.728;9.154;2022-11-06T05:37:39;96797.53;;;1.55;99.98
14689;BME280;7432;48.728;9.154;2022-11-06T05:40:06;96799.75;;;1.59;99.56
14689;BME280;7432;48.728;9.154;2022-11-06T05:42:32;96790.22;;;1.63;98.80
14689;BME280;7432;48.728;9.154;2022-11-06T05:44:59;96778.03;;;1.55;98.96
14689;BME280;7432;48.728;9.154;2022-11-06T05:47:25;96767.59;;;1.60;99.06
14689;BME280;7432;48.728;9.154;2022-11-06T05:49:52;96770.25;;;1.58;99.38
14689;BME280;7432;48.728;9.154;2022-11-06T05:52:18;96766.88;;;1.58;99.07
14689;BME280;7432;48.728;9.154;2022-11-06T05:54:46;96767.34;;;1.50;99.40
14689;BME280;7432;48.728;9.154;2022-11-06T05:57:12;96775.88;;;1.49;99.64
14689;BME280;7432;48.728;9.154;2022-11-06T05:59:39;96785.03;;;1.52;99.01
14689;BME280;7432;48.728;9.154;2022-11-06T06:02:05;96794.16;;;1.54;99.49
14689;BME280;7432;48.728;9.154;2022-11-06T06:04:31;96787.56;;;1.52;99.79
14689;BME280;7432;48.728;9.154;2022-11-06T06:06:58;96789.28;;;1.51;100.00
14689;BME280;7432;48.728;9.154;2022-11-06T06:09:24;96779.13;;;1.51;100.00
14689;BME280;7432;48.728;9.154;2022-11-06T06:11:52;96794.97;;;1.55;99.64
14689;BME280;7432;48.728;9.154;2022-11-06T06:14:19;96788.59;;;1.62;99.15
14689;BME280;7432;48.728;9.154;2022-11-06T06:16:46;96790.03;;;1.66;99.73
14689;BME280;7432;48.728;9.154;2022-11-06T06:19:12;96809.41;;;1.67;99.15
14689;BME280;7432;48.728;9.154;2022-11-06T06:21:39;96800.91;;;1.68;99.67
14689;BME280;7432;48.728;9.154;2022-11-06T06:24:06;96793.09;;;1.71;99.81
14689;BME280;7432;48.728;9.154;2022-11-06T06:26:33;96790.44;;;1.72;99.30
14689;BME280;7432;48.728;9.154;2022-11-06T06:29:01;96785.59;;;1.82;99.33
14689;BME280;7432;48.728;9.154;2022-11-06T06:31:28;96778.69;;;1.84;99.78
14689;BME280;7432;48.728;9.154;2022-11-06T06:33:54;96749.03;;;1.72;99.47
14689;BME280;7432;48.728;9.154;2022-11-06T06:36:20;96768.44;;;1.86;99.86
14689;BME280;7432;48.728;9.154;2022-11-06T06:38:47;96771.19;;;1.95;99.36
14689;BME280;7432;48.728;9.154;2022-11-06T06:41:13;96778.72;;;1.97;99.63
14689;BME280;7432;48.728;9.154;2022-11-06T06:43:39;96783.28;;;2.04;99.51
14689;BME280;7432;48.728;9.154;2022-11-06T06:46:07;96767.84;;;2.07;100.00
14689;BME280;7432;48.728;9.154;2022-11-06T06:48:34;96759.59;;;2.16;99.21
14689;BME280;7432;48.728;9.154;2022-11-06T06:51:01;96773.81;;;2.19;100.00
14689;BME280;7432;48.728;9.154;2022-11-06T06:53:29;96763.19;;;2.26;99.65
14689;BME280;7432;48.728;9.154;2022-11-06T06:55:57;96737.03;;;2.24;99.88
14689;BME280;7432;48.728;9.154;2022-11-06T06:58:24;96753.41;;;2.46;100.00
14689;BME280;7432;48.728;9.154;2022-11-06T07:00:50;96740.53;;;2.60;98.64
14689;BME280;7432;48.728;9.154;2022-11-06T07:03:18;96741.44;;;2.71;98.68
14689;BME280;7432;48.728;9.154;2022-11-06T07:05:44;96743.75;;;2.74;98.40
14689;BME280;7432;48.728;9.154;2022-11-06T07:08:11;96738.53;;;2.88;98.22
14689;BME280;7432;48.728;9.154;2022-11-06T07:10:38;96736.13;;;3.11;97.32
14689;BME280;7432;48.728;9.154;2022-11-06T07:13:04;96732.34;;;3.16;97.38
14689;BME280;7432;48.728;9.154;2022-11-06T07:15:31;96734.81;;;3.29;97.21
14689;BME280;7432;48.728;9.154;2022-11-06T07:18:00;96723.56;;;3.55;96.75
14689;BME280;7432;48.728;9.154;2022-11-06T07:20:28;96712.41;;;3.80;94.79
14689;BME280;7432;48.728;9.154;2022-11-06T07:22:55;96705.59;;;4.36;95.71
14689;BME280;7432;48.728;9.154;2022-11-06T07:25:22;96704.06;;;5.09;91.88
14689;BME280;7432;48.728;9.154;2022-11-06T07:27:49;96702.66;;;5.89;87.29
14689;BME280;7432;48.728;9.154;2022-11-06T07:30:15;96704.41;;;6.49;83.52
14689;BME280;7432;48.728;9.154;2022-11-06T07:32:42;96697.97;;;7.24;81.08
14689;BME280;7432;48.728;9.154;2022-11-06T07:35:08;96695.94;;;8.12;75.90
14689;BME280;7432;48.728;9.154;2022-11-06T07:37:36;96696.69;;;8.68;71.62
14689;BME280;7432;48.728;9.154;2022-11-06T07:40:03;96700.63;;;9.43;68.36
14689;BME280;7432;48.728;9.154;2022-11-06T07:42:30;96690.72;;;10.43;64.88
14689;BME280;7432;48.728;9.154;2022-11-06T07:44:56;96683.41;;;11.46;61.07
14689;BME280;7432;48.728;9.154;2022-11-06T07:47:23;96689.69;;;12.94;56.38
14689;BME280;7432;48.728;9.154;2022-11-06T07:49:49;96690.63;;;13.01;55.17
14689;BME280;7432;48.728;9.154;2022-11-06T07:52:15;96680.91;;;13.11;52.46
14689;BME280;7432;48.728;9.154;2022-11-06T07:54:43;96680.81;;;11.22;55.38
14689;BME280;7432;48.728;9.154;2022-11-06T07:57:10;96675.22;;;10.09;58.87
14689;BME280;7432;48.728;9.154;2022-11-06T07:59:37;96658.28;;;9.12;61.52
14689;BME280;7432;48.728;9.154;2022-11-06T08:02:03;96651.25;;;8.69;64.34
14689;BME280;7432;48.728;9.154;2022-11-06T08:04:30;96646.31;;;8.40;66.37
14689;BME280;7432;48.728;9.154;2022-11-06T08:06:56;96642.84;;;8.22;67.47
14689;BME280;7432;48.728;9.154;2022-11-06T08:09:22;96642.03;;;8.21;67.25
14689;BME280;7432;48.728;9.154;2022-11-06T08:11:51;96647.00;;;7.96;68.12
14689;BME280;7432;48.728;9.154;2022-11-06T08:14:17;96645.28;;;7.77;69.31
14689;BME280;7432;48.728;9.154;2022-11-06T08:16:43;96638.88;;;7.54;71.12
14689;BME280;7432;48.728;9.154;2022-11-06T08:19:10;96644.56;;;7.48;71.13
14689;BME280;7432;48.728;9.154;2022-11-06T08:21:36;96632.72;;;7.08;71.22
14689;BME280;7432;48.728;9.154;2022-11-06T08:24:03;96633.25;;;6.74;72.21
14689;BME280;7432;48.728;9.154;2022-11-06T08:26:30;96630.78;;;7.58;70.78
14689;BME280;7432;48.728;9.154;2022-11-06T08:28:58;96634.50;;;7.83;69.03
14689;BME280;7432;48.728;9.154;2022-11-06T08:31:24;96638.81;;;8.19;67.48
14689;BME280;7432;48.728;9.154;2022-11-06T08:33:51;96643.34;;;8.25;67.36
14689;BME280;7432;48.728;9.154;2022-11-06T08:36:18;96634.44;;;7.93;69.43
14689;BME280;7432;48.728;9.154;2022-11-06T08:38:46;96638.75;;;8.02;68.74
14689;BME280;7432;48.728;9.154;2022-11-06T08:41:12;96637.22;;;8.46;68.39
14689;BME280;7432;48.728;9.154;2022-11-06T08:43:39;96643.34;;;8.62;68.52
14689;BME280;7432;48.728;9.154;2022-11-06T08:46:08;96633.47;;;8.40;68.03
14689;BME280;7432;48.728;9.154;2022-11-06T08:48:35;96624.88;;;8.31;69.13
14689;BME280;7432;48.728;9.154;2022-11-06T08:51:03;96610.34;;;8.13;69.42
14689;BME280;7432;48.728;9.154;2022-11-06T08:53:29;96622.50;;;7.74;70.45
14689;BME280;7432;48.728;9.154;2022-11-06T08:55:56;96628.13;;;7.31;74.26
14689;BME280;7432;48.728;9.154;2022-11-06T08:58:22;96621.13;;;6.85;76.49
14689;BME280;7432;48.728;9.154;2022-11-06T09:00:49;96619.50;;;6.84;78.17
14689;BME280;7432;48.728;9.154;2022-11-06T09:03:16;96626.09;;;6.58;80.21
14689;BME280;7432;48.728;9.154;2022-11-06T09:05:43;96617.56;;;6.38;81.12
14689;BME280;7432;48.728;9.154;2022-11-06T09:08:11;96620.47;;;6.34;82.71
14689;BME280;7432;48.728;9.154;2022-11-06T09:10:39;96620.88;;;6.29;83.57
14689;BME280;7432;48.728;9.154;2022-11-06T09:13:06;96616.59;;;6.39;82.76
14689;BME280;7432;48.728;9.154;2022-11-06T09:15:33;96625.50;;;6.45;84.55
14689;BME280;7432;48.728;9.154;2022-11-06T09:17:59;96619.53;;;6.25;85.11
14689;BME280;7432;48.728;9.154;2022-11-06T09:20:28;96615.91;;;6.28;85.81
14689;BME280;7432;48.728;9.154;2022-11-06T09:22:59;96611.22;;;6.42;85.96
14689;BME280;7432;48.728;9.154;2022-11-06T09:25:26;96609.38;;;6.54;86.33
14689;BME280;7432;48.728;9.154;2022-11-06T09:27:53;96618.16;;;6.71;85.11
14689;BME280;7432;48.728;9.154;2022-11-06T09:30:21;96629.19;;;6.71;86.66
14689;BME280;7432;48.728;9.154;2022-11-06T09:32:49;96640.91;;;6.83;86.72
14689;BME280;7432;48.728;9.154;2022-11-06T09:35:17;96655.34;;;6.94;86.47
14689;BME280;7432;48.728;9.154;2022-11-06T09:37:45;96649.16;;;7.06;87.42
14689;BME280;7432;48.728;9.154;2022-11-06T09:40:18;96618.97;;;7.09;87.54
14689;BME280;7432;48.728;9.154;2022-11-06T09:42:52;96624.22;;;7.37;87.95
14689;BME280;7432;48.728;9.154;2022-11-06T09:45:26;96615.72;;;7.46;88.46
14689;BME280;7432;48.728;9.154;2022-11-06T09:47:57;96611.75;;;7.61;88.07
14689;BME280;7432;48.728;9.154;2022-11-06T09:50:28;96617.91;;;7.78;88.39
14689;BME280;7432;48.728;9.154;2022-11-06T09:52:58;96603.16;;;7.89;86.73
14689;BME280;7432;48.728;9.154;2022-11-06T09:55:29;96596.53;;;7.96;87.06
14689;BME280;7432;48.728;9.154;2022-11-06T09:57:59;96589.59;;;8.06;85.93
14689;BME280;7432;48.728;9.154;2022-11-06T10:00:27;96587.00;;;8.16;86.94
14689;BME280;7432;48.728;9.154;2022-11-06T10:02:56;96575.06;;;8.24;86.67
14689;BME280;7432;48.728;9.154;2022-11-06T10:05:26;96566.31;;;8.27;85.35
14689;BME280;7432;48.728;9.154;2022-11-06T10:07:55;96566.53;;;8.33;84.05
14689;BME280;7432;48.728;9.154;2022-11-06T10:10:27;96571.59;;;8.43;83.45
14689;BME280;7432;48.728;9.154;2022-11-06T10:13:03;96567.50;;;8.50;83.06
14689;BME280;7432;48.728;9.154;2022-11-06T10:15:37;96561.66;;;8.58;83.92
14689;BME280;7432;48.728;9.154;2022-11-06T10:18:11;96562.69;;;8.65;84.03
14689;BME280;7432;48.728;9.154;2022-11-06T10:20:45;96558.34;;;8.65;82.59
14689;BME280;7432;48.728;9.154;2022-11-06T10:23:18;96539.63;;;8.55;82.05
14689;BME280;7432;48.728;9.154;2022-11-06T10:25:59;96557.56;;;8.82;82.58
14689;BME280;7432;48.728;9.154;2022-11-06T10:28:39;96536.16;;;9.00;83.48
14689;BME280;7432;48.728;9.154;2022-11-06T10:31:16;96535.22;;;9.01;80.29
14689;BME280;7432;48.728;9.154;2022-11-06T10:33:52;96518.38;;;8.80;82.48
14689;BME280;7432;48.728;9.154;2022-11-06T10:36:22;96509.47;;;8.92;82.25
14689;BME280;7432;48.728;9.154;2022-11-06T10:38:51;96508.56;;;9.02;81.67
14689;BME280;7432;48.728;9.154;2022-11-06T10:41:23;96512.88;;;8.93;81.08
14689;BME280;7432;48.728;9.154;2022-11-06T10:43:52;96509.94;;;9.14;80.87
14689;BME280;7432;48.728;9.154;2022-11-06T10:46:24;96507.78;;;9.27;80.83
14689;BME280;7432;48.728;9.154;2022-11-06T10:48:56;96499.97;;;9.36;81.64
14689;BME280;7432;48.728;9.154;2022-11-06T10:51:36;96506.09;;;9.43;80.36
14689;BME280;7432;48.728;9.154;2022-11-06T10:54:20;96489.16;;;9.59;79.84
14689;BME280;7432;48.728;9.154;2022-11-06T10:57:02;96493.84;;;9.63;78.88
14689;BME280;7432;48.728;9.154;2022-11-06T10:59:31;96489.03;;;9.68;80.40
14689;BME280;7432;48.728;9.154;2022-11-06T11:01:58;96469.91;;;9.71;79.26
14689;BME280;7432;48.728;9.154;2022-11-06T11:04:24;96465.72;;;9.62;78.92
14689;BME280;7432;48.728;9.154;2022-11-06T11:06:51;96455.72;;;9.50;79.57
14689;BME280;7432;48.728;9.154;2022-11-06T11:09:28;96454.72;;;9.43;80.08
14689;BME280;7432;48.728;9.154;2022-11-06T11:11:57;96450.16;;;9.37;80.13
14689;BME280;7432;48.728;9.154;2022-11-06T11:14:25;96442.16;;;9.40;79.72
14689;BME280;7432;48.728;9.154;2022-11-06T11:16:53;96424.38;;;9.47;80.29
14689;BME280;7432;48.728;9.154;2022-11-06T11:19:27;96416.13;;;9.35;80.08
14689;BME280;7432;48.728;9.154;2022-11-06T11:21:59;96414.69;;;9.41;79.64
14689;BME280;7432;48.728;9.154;2022-11-06T11:24:26;96416.75;;;9.37;79.91
14689;BME280;7432;48.728;9.154;2022-11-06T11:26:55;96405.22;;;9.41;80.60
14689;BME280;7432;48.728;9.154;2022-11-06T11:29:26;96406.53;;;9.53;80.24
14689;BME280;7432;48.728;9.154;2022-11-06T11:31:55;96398.50;;;9.48;81.24
14689;BME280;7432;48.728;9.154;2022-11-06T11:34:24;96393.59;;;9.29;80.80
14689;BME280;7432;48.728;9.154;2022-11-06T11:36:55;96382.00;;;9.17;80.57
14689;BME280;7432;48.728;9.154;2022-11-06T11:39:25;96380.88;;;9.12;83.78
14689;BME280;7432;48.728;9.154;2022-11-06T11:41:53;96379.81;;;8.97;82.13
14689;BME280;7432;48.728;9.154;2022-11-06T11:44:19;96370.88;;;9.09;83.19
14689;BME280;7432;48.728;9.154;2022-11-06T11:46:49;96371.88;;;9.16;82.37
14689;BME280;7432;48.728;9.154;2022-11-06T11:49:27;96356.34;;;8.91;81.53
14689;BME280;7432;48.728;9.154;2022-11-06T11:51:55;96356.34;;;8.91;79.48
14689;BME280;7432;48.728;9.154;2022-11-06T11:54:23;96352.38;;;8.97;78.38
14689;BME280;7432;48.728;9.154;2022-11-06T11:56:52;96338.97;;;8.85;79.18
14689;BME280;7432;48.728;9.154;2022-11-06T11:59:21;96345.22;;;8.83;79.53
14689;BME280;7432;48.728;9.154;2022-11-06T12:01:51;96342.88;;;8.89;80.47
14689;BME280;7432;48.728;9.154;2022-11-06T12:04:22;96330.06;;;8.98;79.73
14689;BME280;7432;48.728;9.154;2022-11-06T12:06:54;96328.72;;;8.85;79.58
14689;BME280;7432;48.728;9.154;2022-11-06T12:09:22;96321.00;;;8.85;81.01
14689;BME280;7432;48.728;9.154;2022-11-06T12:11:50;96330.16;;;8.88;79.80
14689;BME280;7432;48.728;9.154;2022-11-06T12:14:25;96326.34;;;8.92;82.88
14689;BME280;7432;48.728;9.154;2022-11-06T12:16:56;96308.81;;;8.79;81.55
14689;BME280;7432;48.728;9.154;2022-11-06T12:19:27;96320.75;;;8.97;81.69
14689;BME280;7432;48.728;9.154;2022-11-06T12:21:58;96310.00;;;8.93;83.13
14689;BME280;7432;48.728;9.154;2022-11-06T12:24:29;96300.47;;;8.85;81.15
14689;BME280;7432;48.728;9.154;2022-11-06T12:27:01;96309.34;;;8.99;81.11
14689;BME280;7432;48.728;9.154;2022-11-06T12:29:31;96296.38;;;9.01;80.88
14689;BME280;7432;48.728;9.154;2022-11-06T12:32:03;96303.78;;;9.04;80.62
14689;BME280;7432;48.728;9.154;2022-11-06T12:34:35;96306.47;;;9.02;80.69
14689;BME280;7432;48.728;9.154;2022-11-06T12:37:12;96303.91;;;9.02;80.80
14689;BME280;7432;48.728;9.154;2022-11-06T12:39:50;96298.34;;;9.15;81.67
14689;BME280;7432;48.728;9.154;2022-11-06T12:42:19;96291.94;;;9.19;81.20
14689;BME280;7432;48.728;9.154;2022-11-06T12:44:47;96277.50;;;9.26;81.47
14689;BME280;7432;48.728;9.154;2022-11-06T12:47:24;96287.31;;;9.30;83.42
14689;BME280;7432;48.728;9.154;2022-11-06T12:50:20;96294.84;;;9.32;83.75
14689;BME280;7432;48.728;9.154;2022-11-06T12:53:10;96294.56;;;9.43;82.32
14689;BME280;7432;48.728;9.154;2022-11-06T12:55:42;96289.59;;;9.49;81.44
14689;BME280;7432;48.728;9.154;2022-11-06T12:58:34;96288.16;;;9.55;82.53
14689;BME280;7432;48.728;9.154;2022-11-06T13:01:12;96278.84;;;9.62;81.00
14689;BME280;7432;48.728;9.154;2022-11-06T13:04:02;96267.13;;;9.68;79.65
14689;BME280;7432;48.728;9.154;2022-11-06T13:06:56;96266.16;;;9.85;80.80
14689;BME280;7432;48.728;9.154;2022-11-06T13:09:31;96266.47;;;10.06;79.52
14689;BME280;7432;48.728;9.154;2022-11-06T13:12:06;96259.44;;;10.16;76.98
14689;BME280;7432;48.728;9.154;2022-11-06T13:14:41;96248.78;;;10.19;77.13
14689;BME280;7432;48.728;9.154;2022-11-06T13:17:18;96250.09;;;10.23;76.34
14689;BME280;7432;48.728;9.154;2022-11-06T13:19:54;96246.53;;;10.32;76.76
14689;BME280;7432;48.728;9.154;2022-11-06T13:22:27;96250.91;;;10.16;77.43
14689;BME280;7432;48.728;9.154;2022-11-06T13:24:59;96246.22;;;10.19;77.96
14689;BME280;7432;48.728;9.154;2022-11-06T13:27:32;96241.41;;;10.16;77.86
14689;BME280;7432;48.728;9.154;2022-11-06T13:30:10;96240.44;;;10.17;77.66
14689;BME280;7432;48.728;9.154;2022-11-06T13:32:40;96237.72;;;10.19;78.02
14689;BME280;7432;48.728;9.154;2022-11-06T13:35:14;96234.78;;;10.05;77.74